Time;durP1;ratioP1;P1;durP2;ratioP2;P2;SDS_P1;SDS_P2;PMS_P1;PMS_P2;Temp;Humidity;BMP_temperature;BMP_pressure;BME280_temperature;BME280_humidity;BME280_pressure;Samples;Min_cycle;Max_cycle;Signal;HPM_P1;HPM_P2
2022/08/26 00:01:18;;;;;;;1.45;0.75;;;15.70;99.90;;;;;;5034944;28;20209;-79
2022/08/26 00:03:49;;;;;;;4.20;0.85;;;15.80;99.90;;;;;;5051262;28;20200;-79
2022/08/26 00:06:20;;;;;;;3.00;0.90;;;15.90;99.90;;;;;;5050955;28;20197;-78
2022/08/26 00:08:53;;;;;;;2.45;0.75;;;16.00;99.90;;;;;;5051544;28;20211;-79
2022/08/26 00:11:23;;;;;;;4.00;1.00;;;16.00;99.90;;;;;;5035359;28;20208;-78
2022/08/26 00:13:54;;;;;;;4.40;1.00;;;16.10;99.90;;;;;;5032821;28;20212;-78
2022/08/26 00:16:25;;;;;;;2.03;0.75;;;16.10;99.90;;;;;;5052456;28;20196;-79
2022/08/26 00:18:56;;;;;;;5.63;0.85;;;16.10;99.90;;;;;;5049634;28;20620;-79
2022/08/26 00:21:27;;;;;;;3.05;0.85;;;16.20;99.90;;;;;;5051102;28;20197;-79
2022/08/26 00:23:59;;;;;;;3.92;1.10;;;16.20;99.90;;;;;;5051912;28;20228;-79
2022/08/26 00:26:32;;;;;;;2.53;0.85;;;16.20;99.90;;;;;;5051529;28;20192;-79
2022/08/26 00:29:03;;;;;;;3.65;0.90;;;16.20;99.90;;;;;;5051444;28;20602;-78
2022/08/26 00:31:35;;;;;;;4.00;1.00;;;16.20;99.90;;;;;;5051362;28;20193;-79
2022/08/26 00:34:06;;;;;;;2.22;0.70;;;16.20;99.90;;;;;;5051398;28;20546;-79
2022/08/26 00:36:38;;;;;;;2.15;0.80;;;16.20;99.90;;;;;;5043677;28;20200;-79
2022/08/26 00:39:11;;;;;;;2.20;0.50;;;16.30;99.90;;;;;;5046288;28;20250;-79
2022/08/26 00:41:43;;;;;;;5.28;0.90;;;16.40;99.90;;;;;;5050591;28;20207;-79
2022/08/26 00:44:14;;;;;;;3.13;1.17;;;16.50;99.90;;;;;;5051077;28;20228;-79
2022/08/26 00:46:47;;;;;;;3.70;0.82;;;16.60;99.90;;;;;;5051026;28;20298;-79
2022/08/26 00:49:24;;;;;;;5.43;1.00;;;16.70;99.90;;;;;;5050870;28;20202;-79
2022/08/26 00:51:57;;;;;;;3.05;0.80;;;16.70;99.90;;;;;;5050227;28;20228;-79
2022/08/26 00:54:34;;;;;;;4.88;0.93;;;16.60;99.90;;;;;;5044023;28;20555;-79
2022/08/26 00:57:08;;;;;;;5.53;0.93;;;16.60;99.90;;;;;;5050646;28;20201;-79
2022/08/26 00:59:39;;;;;;;4.93;0.82;;;16.80;99.90;;;;;;5056869;28;20763;-79
2022/08/26 01:02:10;;;;;;;4.03;0.95;;;16.80;99.90;;;;;;5070744;28;20301;-79
2022/08/26 01:04:42;;;;;;;2.45;0.82;;;16.80;99.90;;;;;;5070476;28;20200;-80
2022/08/26 01:07:14;;;;;;;6.20;1.10;;;16.80;99.90;;;;;;5070501;28;20667;-79
2022/08/26 01:09:48;;;;;;;5.18;0.90;;;16.80;99.90;;;;;;5061237;28;20204;-80
2022/08/26 01:12:19;;;;;;;3.90;1.08;;;16.80;99.90;;;;;;5049188;28;20683;-79
2022/08/26 01:14:50;;;;;;;7.88;1.00;;;16.80;99.90;;;;;;5050361;28;20208;-79
2022/08/26 01:17:21;;;;;;;4.82;0.85;;;16.80;99.90;;;;;;5034566;28;20229;-78
2022/08/26 01:19:56;;;;;;;2.85;0.80;;;16.80;99.90;;;;;;5031103;28;20425;-79
2022/08/26 01:22:29;;;;;;;2.67;0.60;;;16.80;99.90;;;;;;5030487;28;20643;-80
2022/08/26 01:25:04;;;;;;;1.95;0.80;;;16.80;99.90;;;;;;5030629;28;20541;-79
2022/08/26 01:27:36;;;;;;;2.70;0.70;;;16.70;99.90;;;;;;5033571;28;20192;-79
2022/08/26 01:30:08;;;;;;;3.90;0.93;;;16.80;99.90;;;;;;5030022;28;20684;-79
2022/08/26 01:32:39;;;;;;;4.95;0.85;;;16.80;99.90;;;;;;5030134;28;20194;-79
2022/08/26 01:35:11;;;;;;;3.03;0.60;;;16.90;99.90;;;;;;5032669;28;20205;-79
2022/08/26 01:37:42;;;;;;;3.13;0.80;;;17.00;99.90;;;;;;5049424;28;20246;-80
2022/08/26 01:40:20;;;;;;;1.58;0.70;;;17.00;99.90;;;;;;5050156;28;20227;-80
2022/08/26 01:42:51;;;;;;;2.30;0.70;;;17.00;99.90;;;;;;5048507;28;20236;-79
2022/08/26 01:45:25;;;;;;;2.70;0.70;;;17.20;99.90;;;;;;5030051;28;20207;-79
2022/08/26 01:47:58;;;;;;;3.58;0.90;;;17.50;99.90;;;;;;5041668;28;20204;-79
2022/08/26 01:50:33;;;;;;;2.60;0.80;;;17.60;99.90;;;;;;5050447;28;20674;-80
2022/08/26 01:53:06;;;;;;;2.45;0.60;;;17.60;99.90;;;;;;5049743;28;20238;-80
2022/08/26 01:55:41;;;;;;;3.92;0.90;;;17.40;99.90;;;;;;5049859;28;20417;-80
2022/08/26 01:58:17;;;;;;;5.38;0.68;;;17.40;99.90;;;;;;5049602;28;20205;-79
2022/08/26 02:00:49;;;;;;;4.38;1.00;;;17.30;99.90;;;;;;5055060;28;20227;-79
2022/08/26 02:03:22;;;;;;;7.63;0.95;;;17.30;99.90;;;;;;5049705;28;20200;-79
2022/08/26 02:05:56;;;;;;;3.50;0.95;;;17.30;99.90;;;;;;5049442;28;20279;-79
2022/08/26 02:08:30;;;;;;;3.40;0.90;;;17.30;99.90;;;;;;5049697;28;20735;-79
2022/08/26 02:11:03;;;;;;;2.78;0.77;;;17.20;99.90;;;;;;5049915;28;20227;-80
2022/08/26 02:13:36;;;;;;;3.53;0.90;;;17.30;99.90;;;;;;5049303;28;20564;-79
2022/08/26 02:16:07;;;;;;;4.72;0.90;;;17.30;99.90;;;;;;5035781;28;20196;-80
2022/08/26 02:18:41;;;;;;;4.47;0.60;;;17.40;99.90;;;;;;5048247;28;20204;-80
2022/08/26 02:21:13;;;;;;;4.57;0.95;;;17.40;99.90;;;;;;5050248;28;20201;-80
2022/08/26 02:23:44;;;;;;;4.82;0.90;;;17.40;99.90;;;;;;5050117;28;20196;-79
2022/08/26 02:26:19;;;;;;;4.13;0.93;;;17.50;99.90;;;;;;5050007;28;20196;-80
2022/08/26 02:28:54;;;;;;;3.78;1.10;;;17.60;99.90;;;;;;5049563;28;20218;-79
2022/08/26 02:31:26;;;;;;;3.80;0.90;;;17.70;99.90;;;;;;5032028;28;20230;-80
2022/08/26 02:33:56;;;;;;;3.88;1.13;;;17.80;99.90;;;;;;5040841;28;20200;-80
2022/08/26 02:36:28;;;;;;;6.03;1.42;;;17.70;99.90;;;;;;5044486;28;20193;-80
2022/08/26 02:38:59;;;;;;;5.22;1.60;;;17.60;99.90;;;;;;5040199;28;20217;-79
2022/08/26 02:41:31;;;;;;;4.47;1.13;;;17.60;99.90;;;;;;5030318;28;20224;-80
2022/08/26 02:44:02;;;;;;;3.72;1.00;;;17.70;99.90;;;;;;5029398;28;20225;-79
2022/08/26 02:46:33;;;;;;;3.92;0.82;;;17.70;99.90;;;;;;5029450;28;20215;-79
2022/08/26 02:49:04;;;;;;;3.70;0.73;;;17.60;99.90;;;;;;5030224;28;20201;-80
2022/08/26 02:51:56;;;;;;;5.65;0.98;;;17.50;99.90;;;;;;5054898;28;20201;-77
2022/08/26 02:57:50;;;;;;;2.60;0.85;;;17.50;99.90;;;;;;5070766;28;20192;-81
2022/08/26 03:00:32;;;;;;;4.32;0.90;;;17.40;99.90;;;;;;5068827;28;20383;-80
2022/08/26 03:03:06;;;;;;;3.15;0.77;;;17.40;99.90;;;;;;5068278;28;20180;-79
2022/08/26 03:06:09;;;;;;;3.45;1.00;;;17.50;99.90;;;;;;5069798;28;20204;-81
2022/08/26 03:08:51;;;;;;;2.63;0.73;;;17.40;99.90;;;;;;5069158;28;20227;-81
2022/08/26 03:11:27;;;;;;;4.40;1.27;;;17.30;99.90;;;;;;5050987;28;20189;-82
2022/08/26 03:14:04;;;;;;;3.78;0.82;;;17.40;99.90;;;;;;5049744;28;20288;-80
2022/08/26 03:16:57;;;;;;;2.38;0.73;;;17.30;99.90;;;;;;5064924;28;20681;-82
2022/08/26 03:19:41;;;;;;;3.17;0.80;;;17.40;99.90;;;;;;5047938;28;20237;-80
2022/08/26 03:22:18;;;;;;;2.70;0.82;;;17.40;99.90;;;;;;5053297;28;20189;-80
2022/08/26 03:24:57;;;;;;;5.82;0.93;;;17.30;99.90;;;;;;5067184;28;20197;-81
2022/08/26 03:27:46;;;;;;;3.58;1.13;;;17.40;99.90;;;;;;5049496;28;20189;-79
2022/08/26 03:36:09;;;;;;;4.03;0.88;;;17.80;99.90;;;;;;5056860;28;20200;-80
2022/08/26 03:38:41;;;;;;;4.65;0.90;;;17.70;99.90;;;;;;5064365;28;20702;-80
2022/08/26 03:41:17;;;;;;;2.83;0.77;;;17.70;99.90;;;;;;5059358;28;20662;-81
2022/08/26 03:43:52;;;;;;;3.85;1.00;;;17.70;99.90;;;;;;5046365;28;20232;-80
2022/08/26 03:46:33;;;;;;;2.92;0.82;;;17.80;99.90;;;;;;5047462;28;20514;-80
2022/08/26 03:49:09;;;;;;;4.85;0.70;;;17.90;99.90;;;;;;5044500;28;20256;-81
2022/08/26 03:54:48;;;;;;;5.30;1.02;;;17.90;99.90;;;;;;5047415;28;20229;-81
2022/08/26 03:57:27;;;;;;;7.28;1.10;;;17.90;99.90;;;;;;5048108;28;20813;-81
2022/08/26 03:59:58;;;;;;;4.95;1.00;;;17.80;99.90;;;;;;5052505;28;20220;-80
2022/08/26 04:02:35;;;;;;;5.07;1.20;;;17.70;99.90;;;;;;5042267;28;20858;-80
2022/08/26 04:05:12;;;;;;;4.43;1.05;;;17.60;99.90;;;;;;5041103;28;20185;-81
2022/08/26 04:08:16;;;;;;;3.80;1.02;;;17.50;99.90;;;;;;5040714;28;20635;-79
2022/08/26 04:10:51;;;;;;;4.07;0.60;;;17.50;99.90;;;;;;5042803;28;20201;-81
2022/08/26 04:14:06;;;;;;;2.90;0.57;;;17.40;99.90;;;;;;5043008;28;20240;-84
2022/08/26 04:16:44;;;;;;;2.55;0.80;;;17.30;99.90;;;;;;5051072;28;20204;-81
2022/08/26 04:19:22;;;;;;;3.65;0.70;;;17.20;99.90;;;;;;5038459;28;20193;-82
2022/08/26 04:21:53;;;;;;;4.10;0.80;;;17.20;99.90;;;;;;5033873;28;20561;-81
2022/08/26 04:24:26;;;;;;;2.45;0.70;;;17.10;99.90;;;;;;5034308;28;20240;-81
2022/08/26 04:26:57;;;;;;;2.47;0.88;;;17.10;99.90;;;;;;5032188;28;20217;-81
2022/08/26 04:29:29;;;;;;;4.82;1.25;;;17.10;99.90;;;;;;5031189;28;20201;-80
2022/08/26 04:32:04;;;;;;;5.53;1.10;;;17.10;99.90;;;;;;5052137;28;20211;-81
2022/08/26 04:34:37;;;;;;;4.65;1.23;;;17.10;99.90;;;;;;5047045;28;20535;-80
2022/08/26 04:37:10;;;;;;;2.00;0.45;;;17.00;99.90;;;;;;5051678;28;20683;-80
2022/08/26 04:39:40;;;;;;;2.47;0.77;;;16.90;99.90;;;;;;5051480;28;20217;-80
2022/08/26 04:42:12;;;;;;;3.65;0.93;;;16.90;99.90;;;;;;5051247;28;20197;-80
2022/08/26 04:44:43;;;;;;;4.63;0.95;;;17.00;99.90;;;;;;5032217;28;20205;-80
2022/08/26 04:47:15;;;;;;;4.20;0.90;;;17.10;99.90;;;;;;5040003;28;20635;-80
2022/08/26 04:49:48;;;;;;;6.18;1.00;;;17.10;99.90;;;;;;5051103;28;20203;-80
2022/08/26 04:52:19;;;;;;;4.90;1.15;;;17.20;99.90;;;;;;5051108;28;20224;-80
2022/08/26 04:54:50;;;;;;;5.57;1.05;;;17.20;99.90;;;;;;5052573;28;20287;-80
2022/08/26 04:57:22;;;;;;;6.65;1.10;;;17.20;99.90;;;;;;5053740;28;20232;-80
2022/08/26 04:59:54;;;;;;;5.05;0.82;;;17.20;99.90;;;;;;5053718;28;20219;-80
2022/08/26 05:02:24;;;;;;;2.88;0.80;;;17.20;99.90;;;;;;5052276;28;20279;-79
2022/08/26 05:04:58;;;;;;;2.65;0.70;;;17.20;99.90;;;;;;5054533;28;20756;-80
2022/08/26 05:07:29;;;;;;;1.67;0.60;;;17.10;99.90;;;;;;5050154;28;20199;-80
2022/08/26 05:10:05;;;;;;;5.18;0.60;;;17.20;99.90;;;;;;5031184;28;20263;-80
2022/08/26 05:12:36;;;;;;;2.80;0.70;;;17.10;99.90;;;;;;5037533;28;20192;-81
2022/08/26 05:15:09;;;;;;;4.05;0.80;;;17.20;99.90;;;;;;5050391;28;20196;-80
2022/08/26 05:17:39;;;;;;;1.38;0.70;;;17.20;99.90;;;;;;5052684;28;20209;-81
2022/08/26 05:20:14;;;;;;;3.90;0.70;;;17.20;99.90;;;;;;5050506;28;20224;-80
2022/08/26 05:22:45;;;;;;;2.17;0.40;;;17.20;99.90;;;;;;5051106;28;20279;-80
2022/08/26 05:25:16;;;;;;;3.13;0.80;;;17.20;99.90;;;;;;5049941;28;20644;-80
2022/08/26 05:27:46;;;;;;;3.33;0.70;;;17.20;99.90;;;;;;5050496;28;20283;-80
2022/08/26 05:30:17;;;;;;;4.43;0.90;;;17.20;99.90;;;;;;5052224;28;20204;-80
2022/08/26 05:32:50;;;;;;;3.97;0.80;;;17.10;99.90;;;;;;5053219;28;20200;-80
2022/08/26 05:35:24;;;;;;;2.05;0.90;;;17.00;99.90;;;;;;5041324;28;20201;-80
2022/08/26 05:37:55;;;;;;;1.90;0.73;;;17.10;99.90;;;;;;5053361;28;20282;-80
2022/08/26 05:40:25;;;;;;;6.20;1.10;;;17.00;99.90;;;;;;5052774;28;20216;-80
2022/08/26 05:42:58;;;;;;;4.38;1.10;;;17.00;99.90;;;;;;5050111;28;20327;-80
2022/08/26 05:45:31;;;;;;;9.05;1.50;;;16.90;99.90;;;;;;5053408;28;20204;-81
2022/08/26 05:48:01;;;;;;;8.98;1.25;;;16.70;99.90;;;;;;5053895;28;20255;-81
2022/08/26 05:50:37;;;;;;;3.92;1.15;;;16.60;99.90;;;;;;5052144;28;20207;-80
2022/08/26 05:53:08;;;;;;;3.88;0.75;;;16.50;99.90;;;;;;5040049;28;20872;-80
2022/08/26 05:55:45;;;;;;;5.80;1.10;;;16.40;99.90;;;;;;5051864;28;20197;-80
2022/08/26 05:58:16;;;;;;;3.40;0.77;;;16.30;99.90;;;;;;5036251;28;20576;-80
2022/08/26 06:00:48;;;;;;;4.95;0.93;;;16.20;99.90;;;;;;5049236;28;20725;-80
2022/08/26 06:03:19;;;;;;;4.90;1.10;;;16.20;99.90;;;;;;5050345;28;20622;-80
2022/08/26 06:05:51;;;;;;;5.43;1.15;;;16.20;99.90;;;;;;5068069;28;20287;-80
2022/08/26 06:08:22;;;;;;;3.65;1.00;;;16.20;99.90;;;;;;5057261;28;20203;-81
2022/08/26 06:10:55;;;;;;;4.20;0.90;;;16.10;99.90;;;;;;5037594;28;20250;-80
2022/08/26 06:13:29;;;;;;;3.95;0.95;;;16.00;99.90;;;;;;5029905;28;20284;-80
2022/08/26 06:16:00;;;;;;;4.20;0.95;;;16.00;99.90;;;;;;5037757;28;20257;-80
2022/08/26 06:18:33;;;;;;;4.55;1.30;;;16.00;99.90;;;;;;5052509;28;20288;-79
2022/08/26 06:21:16;;;;;;;3.22;0.95;;;16.00;99.90;;;;;;5033988;28;20291;-80
2022/08/26 06:26:36;;;;;;;3.05;0.98;;;15.90;99.90;;;;;;5043540;28;20203;-80
2022/08/26 06:29:07;;;;;;;2.63;0.98;;;15.90;99.90;;;;;;5054069;28;20287;-80
2022/08/26 06:31:39;;;;;;;4.15;0.90;;;15.90;99.90;;;;;;5053935;28;20657;-80
2022/08/26 06:34:10;;;;;;;3.63;1.80;;;15.80;99.90;;;;;;5052085;28;20206;-80
2022/08/26 06:36:44;;;;;;;4.40;0.88;;;15.80;99.90;;;;;;5053559;28;20662;-80
2022/08/26 06:39:16;;;;;;;4.88;1.08;;;15.80;99.90;;;;;;5053674;28;20196;-81
2022/08/26 06:41:47;;;;;;;6.20;1.27;;;15.80;99.90;;;;;;5038412;28;20224;-81
2022/08/26 06:44:18;;;;;;;4.57;1.60;;;15.80;99.90;;;;;;5053049;28;20232;-80
2022/08/26 06:46:49;;;;;;;3.55;1.00;;;15.80;99.90;;;;;;5037592;28;20204;-81
2022/08/26 06:49:20;;;;;;;4.38;1.00;;;15.80;99.90;;;;;;5036921;28;20659;-80
2022/08/26 06:51:52;;;;;;;3.40;0.80;;;15.70;99.90;;;;;;5035821;28;20221;-81
2022/08/26 06:54:24;;;;;;;4.47;1.13;;;15.70;99.90;;;;;;5033688;28;20219;-81
2022/08/26 06:56:55;;;;;;;5.18;1.00;;;15.70;99.90;;;;;;5033676;28;20651;-81
2022/08/26 06:59:26;;;;;;;3.33;0.98;;;15.70;99.90;;;;;;5038304;28;20956;-80
2022/08/26 07:01:57;;;;;;;2.53;0.63;;;15.60;99.90;;;;;;5053071;28;20228;-81
2022/08/26 07:04:28;;;;;;;1.65;0.68;;;15.60;99.90;;;;;;5059704;28;20561;-81
2022/08/26 07:07:01;;;;;;;2.00;0.63;;;15.60;99.90;;;;;;5061615;28;20208;-80
2022/08/26 07:09:34;;;;;;;3.80;0.80;;;15.60;99.90;;;;;;5053399;28;20207;-80
2022/08/26 07:12:05;;;;;;;5.38;1.10;;;15.60;99.90;;;;;;5053431;28;20205;-81
2022/08/26 07:14:36;;;;;;;3.30;0.80;;;15.60;99.90;;;;;;5053545;28;20262;-79
2022/08/26 07:17:08;;;;;;;4.90;0.90;;;15.60;99.90;;;;;;5052188;28;20269;-80
2022/08/26 07:19:39;;;;;;;3.83;1.00;;;15.60;99.90;;;;;;5052876;28;20207;-80
2022/08/26 07:22:14;;;;;;;5.78;1.08;;;15.60;99.90;;;;;;5052686;28;20231;-79
2022/08/26 07:24:45;;;;;;;3.00;1.02;;;15.60;99.90;;;;;;5051175;28;20196;-80
2022/08/26 07:27:17;;;;;;;3.55;0.90;;;15.50;99.90;;;;;;5052313;28;20620;-80
2022/08/26 07:29:48;;;;;;;3.13;1.02;;;15.50;99.90;;;;;;5052506;28;20494;-80
2022/08/26 07:32:21;;;;;;;3.20;0.90;;;15.50;99.90;;;;;;5051306;28;20204;-80
2022/08/26 07:34:52;;;;;;;1.77;0.75;;;15.50;99.90;;;;;;5053310;28;20212;-78
2022/08/26 07:37:24;;;;;;;3.33;1.17;;;15.40;99.90;;;;;;5052364;28;20255;-80
2022/08/26 07:39:55;;;;;;;4.47;0.90;;;15.50;99.90;;;;;;5038475;28;20561;-81
2022/08/26 07:42:26;;;;;;;5.45;1.20;;;15.50;99.90;;;;;;5033580;28;20270;-81
2022/08/26 07:44:57;;;;;;;3.55;0.98;;;15.50;99.90;;;;;;5033806;28;20992;-80
2022/08/26 07:47:27;;;;;;;6.18;1.05;;;15.50;99.90;;;;;;5041365;28;20270;-80
2022/08/26 07:49:59;;;;;;;3.50;0.90;;;15.50;99.90;;;;;;5054074;28;20666;-80
2022/08/26 07:52:32;;;;;;;3.45;1.50;;;15.50;99.90;;;;;;5052862;28;20220;-80
2022/08/26 07:55:05;;;;;;;5.15;1.20;;;15.50;99.90;;;;;;5052495;28;20196;-81
2022/08/26 07:57:36;;;;;;;3.55;1.10;;;15.50;99.90;;;;;;5050981;28;20208;-80
2022/08/26 08:00:11;;;;;;;3.35;1.33;;;15.50;99.90;;;;;;5052447;28;20204;-80
2022/08/26 08:02:43;;;;;;;5.20;1.70;;;15.40;99.90;;;;;;5052146;28;20219;-80
2022/08/26 08:05:15;;;;;;;4.50;1.52;;;15.40;99.90;;;;;;5052488;28;20682;-80
2022/08/26 08:07:47;;;;;;;2.90;1.30;;;15.50;99.90;;;;;;5052558;28;20578;-81
2022/08/26 08:10:21;;;;;;;4.72;1.20;;;15.50;99.90;;;;;;5043943;28;20632;-81
2022/08/26 08:12:53;;;;;;;3.22;0.90;;;15.50;99.90;;;;;;5032112;28;20560;-79
2022/08/26 08:15:26;;;;;;;5.60;1.30;;;15.50;99.90;;;;;;5043163;28;20213;-80
2022/08/26 08:17:58;;;;;;;5.43;1.40;;;15.50;99.90;;;;;;5051378;28;20192;-81
2022/08/26 08:20:29;;;;;;;7.25;1.70;;;15.50;99.90;;;;;;5035253;28;20545;-81
2022/08/26 08:23:02;;;;;;;4.32;1.40;;;15.50;99.90;;;;;;5047118;28;20201;-82
2022/08/26 08:25:34;;;;;;;4.65;1.50;;;15.50;99.90;;;;;;5052210;28;20197;-82
2022/08/26 08:28:05;;;;;;;5.10;2.40;;;15.50;99.90;;;;;;5051718;28;20197;-83
2022/08/26 08:30:39;;;;;;;5.75;1.55;;;15.50;99.90;;;;;;5046483;28;20651;-85
2022/08/26 08:33:10;;;;;;;4.10;1.77;;;15.60;99.90;;;;;;5035212;28;20202;-84
2022/08/26 08:35:43;;;;;;;8.15;3.05;;;15.50;99.90;;;;;;5031365;28;20219;-85
2022/08/26 08:38:17;;;;;;;4.22;1.60;;;15.50;99.90;;;;;;5051064;28;20219;-84
2022/08/26 08:40:48;;;;;;;6.97;1.45;;;15.60;99.90;;;;;;5051532;28;20223;-85
2022/08/26 08:43:33;;;;;;;4.10;1.63;;;15.50;99.90;;;;;;5051671;28;20233;-84
2022/08/26 08:46:11;;;;;;;3.70;1.40;;;15.50;99.90;;;;;;5052487;28;20197;-84
2022/08/26 08:48:47;;;;;;;6.07;2.15;;;15.40;99.90;;;;;;5046273;28;20203;-81
2022/08/26 08:51:25;;;;;;;6.70;2.42;;;15.40;99.90;;;;;;5055515;28;20204;-81
2022/08/26 08:53:59;;;;;;;4.05;1.85;;;15.40;99.90;;;;;;5048968;28;20659;-84
2022/08/26 08:56:38;;;;;;;5.30;1.83;;;15.40;99.90;;;;;;5051963;28;20227;-83
2022/08/26 08:59:17;;;;;;;7.75;3.70;;;15.40;99.90;;;;;;5049817;28;20680;-83
2022/08/26 09:01:56;;;;;;;7.90;3.47;;;15.40;99.90;;;;;;5048078;28;20231;-85
2022/08/26 09:04:58;;;;;;;11.52;4.28;;;15.40;99.90;;;;;;5058484;28;20662;-85
2022/08/26 09:07:33;;;;;;;4.80;2.50;;;15.40;99.90;;;;;;5031633;28;20725;-85
2022/08/26 09:10:17;;;;;;;7.38;2.28;;;15.40;99.90;;;;;;5050616;28;20290;-84
2022/08/26 09:12:49;;;;;;;4.20;1.42;;;15.40;99.90;;;;;;5055820;28;20206;-83
2022/08/26 09:15:23;;;;;;;4.25;1.27;;;15.40;99.90;;;;;;5056291;28;20283;-83
2022/08/26 09:18:05;;;;;;;3.53;1.50;;;15.30;99.90;;;;;;5042352;28;20201;-84
2022/08/26 09:20:46;;;;;;;2.47;1.25;;;15.30;99.90;;;;;;5049308;28;20201;-84
2022/08/26 09:23:17;;;;;;;3.75;1.40;;;15.20;99.90;;;;;;5049776;28;20196;-85
2022/08/26 09:25:55;;;;;;;3.72;1.23;;;15.30;99.90;;;;;;5051762;28;20200;-84
2022/08/26 09:28:28;;;;;;;3.45;1.30;;;15.20;99.90;;;;;;5062162;28;20210;-84
2022/08/26 09:31:12;;;;;;;3.35;1.17;;;15.20;99.90;;;;;;5056968;28;20750;-84
2022/08/26 09:33:44;;;;;;;2.30;1.00;;;15.30;99.90;;;;;;5052518;28;20196;-82
2022/08/26 09:36:22;;;;;;;3.30;1.10;;;15.20;99.90;;;;;;5052751;28;20287;-82
2022/08/26 09:38:54;;;;;;;2.78;1.05;;;15.20;99.90;;;;;;5044617;28;20254;-83
2022/08/26 09:41:31;;;;;;;2.50;1.20;;;15.20;99.90;;;;;;5032303;28;20225;-81
2022/08/26 09:44:23;;;;;;;2.15;1.00;;;15.20;99.90;;;;;;5031641;28;20228;-82
2022/08/26 09:47:00;;;;;;;2.95;1.33;;;15.20;99.90;;;;;;5045508;28;20683;-82
2022/08/26 09:49:33;;;;;;;2.55;1.30;;;15.30;99.90;;;;;;5052208;28;20192;-83
2022/08/26 09:52:15;;;;;;;2.42;1.23;;;15.30;99.90;;;;;;5051234;28;20227;-83
2022/08/26 09:54:59;;;;;;;3.67;1.35;;;15.30;99.90;;;;;;5048734;28;20203;-83
2022/08/26 09:57:34;;;;;;;4.03;1.25;;;15.30;99.90;;;;;;5041654;28;20745;-82
2022/08/26 10:00:24;;;;;;;4.55;1.40;;;15.30;99.90;;;;;;5031516;28;20659;-83
2022/08/26 10:02:55;;;;;;;4.40;1.60;;;15.30;99.90;;;;;;5047414;28;20270;-83
2022/08/26 10:05:33;;;;;;;3.88;1.70;;;15.30;99.90;;;;;;5050370;28;20196;-83
2022/08/26 10:08:25;;;;;;;4.78;2.17;;;15.30;99.90;;;;;;5051463;28;20224;-82
2022/08/26 10:10:57;;;;;;;6.93;2.70;;;15.30;99.90;;;;;;5035185;28;20285;-84
2022/08/26 10:13:36;;;;;;;12.73;3.92;;;15.30;99.90;;;;;;5034453;28;20562;-83
2022/08/26 10:16:15;;;;;;;7.68;2.42;;;15.30;99.90;;;;;;5030626;28;20747;-83
2022/08/26 10:18:53;;;;;;;3.20;1.40;;;15.40;99.90;;;;;;5042578;28;20196;-82
2022/08/26 10:21:28;;;;;;;5.75;1.50;;;15.30;99.90;;;;;;5060043;28;20230;-82
2022/08/26 10:24:02;;;;;;;13.98;6.63;;;15.20;99.90;;;;;;5050363;28;20286;-82
2022/08/26 10:26:43;;;;;;;7.93;3.10;;;15.20;99.90;;;;;;5050165;28;20197;-83
2022/08/26 10:29:19;;;;;;;3.97;2.00;;;15.20;99.90;;;;;;5050145;28;20204;-83
2022/08/26 10:31:53;;;;;;;6.60;2.45;;;15.20;99.90;;;;;;5048444;28;20200;-82
2022/08/26 10:34:24;;;;;;;4.70;1.90;;;15.10;99.90;;;;;;5050344;28;20678;-82
2022/08/26 10:36:59;;;;;;;6.63;2.05;;;15.00;99.90;;;;;;5041646;28;20190;-81
2022/08/26 10:39:36;;;;;;;4.18;1.80;;;15.00;99.90;;;;;;5046397;28;20200;-83
2022/08/26 10:42:11;;;;;;;5.45;2.35;;;15.00;99.90;;;;;;5051088;28;20721;-83
2022/08/26 10:44:45;;;;;;;3.65;1.77;;;15.00;99.90;;;;;;5050017;28;20570;-82
2022/08/26 10:47:22;;;;;;;5.38;2.13;;;15.00;99.90;;;;;;5049145;28;20204;-83
2022/08/26 10:49:54;;;;;;;6.50;2.42;;;15.00;99.90;;;;;;5046394;28;20207;-83
2022/08/26 10:52:30;;;;;;;5.10;2.13;;;15.10;99.90;;;;;;5044864;28;20223;-82
2022/08/26 10:55:08;;;;;;;5.95;3.08;;;15.10;99.90;;;;;;5039974;28;20200;-80
2022/08/26 10:57:48;;;;;;;6.85;4.35;;;15.10;99.90;;;;;;5049165;28;20208;-83
2022/08/26 11:03:21;;;;;;;7.63;4.80;;;15.00;99.90;;;;;;5030303;28;20646;-83
2022/08/26 11:06:24;;;;;;;6.53;3.22;;;15.00;99.90;;;;;;5044933;28;20572;-83
2022/08/26 11:08:57;;;;;;;4.63;2.65;;;15.00;99.90;;;;;;5043853;28;20662;-83
2022/08/26 11:11:49;;;;;;;5.93;2.45;;;15.00;99.90;;;;;;5072598;28;20678;-83
2022/08/26 11:14:40;;;;;;;8.60;2.60;;;15.00;99.90;;;;;;5054318;28;20196;-84
2022/08/26 11:17:13;;;;;;;3.92;1.90;;;15.00;99.90;;;;;;5031338;28;20656;-83
2022/08/26 11:20:04;;;;;;;2.95;1.40;;;15.00;99.90;;;;;;5039993;28;20655;-83
2022/08/26 11:22:38;;;;;;;3.15;1.23;;;15.10;99.90;;;;;;5046929;28;20228;-83
2022/08/26 11:25:12;;;;;;;4.20;1.50;;;15.10;99.90;;;;;;5053303;28;20196;-83
2022/08/26 11:28:06;;;;;;;2.17;1.27;;;15.00;99.90;;;;;;5053922;28;20223;-84
2022/08/26 11:30:49;;;;;;;2.00;0.70;;;15.00;99.90;;;;;;5053714;28;20684;-83
2022/08/26 11:33:51;;;;;;;2.60;1.10;;;15.00;99.90;;;;;;5034549;28;20202;-84
2022/08/26 11:36:53;;;;;;;2.15;0.90;;;15.00;99.90;;;;;;5011025;28;20207;-84
2022/08/26 11:39:27;;;;;;;1.35;0.90;;;15.00;99.90;;;;;;5044509;28;20196;-84
2022/08/26 11:42:06;;;;;;;2.63;1.13;;;15.00;99.90;;;;;;5052836;28;20227;-84
2022/08/26 11:44:44;;;;;;;2.03;1.40;;;15.00;99.90;;;;;;5052688;28;20196;-83
2022/08/26 11:47:17;;;;;;;2.78;1.30;;;15.00;99.90;;;;;;5055935;28;20207;-84
2022/08/26 11:49:49;;;;;;;2.78;1.42;;;15.00;99.90;;;;;;5062654;28;20196;-84
2022/08/26 11:52:24;;;;;;;3.22;1.50;;;15.00;99.90;;;;;;5053261;28;20231;-83
2022/08/26 11:55:05;;;;;;;3.45;1.40;;;14.90;99.90;;;;;;5052421;28;20257;-83
2022/08/26 11:57:42;;;;;;;2.63;1.02;;;14.90;99.90;;;;;;5035521;28;20202;-82
2022/08/26 12:00:19;;;;;;;3.00;1.10;;;14.90;99.90;;;;;;5034594;28;20213;-83
2022/08/26 12:02:50;;;;;;;1.67;1.02;;;15.00;99.90;;;;;;5050227;28;20230;-83
2022/08/26 12:05:27;;;;;;;3.53;1.20;;;14.90;99.90;;;;;;5052144;28;20570;-82
2022/08/26 12:07:58;;;;;;;2.38;1.10;;;14.90;99.90;;;;;;5035364;28;20226;-82
2022/08/26 12:10:31;;;;;;;4.03;1.05;;;14.90;99.90;;;;;;5052135;28;20209;-81
2022/08/26 12:13:03;;;;;;;2.78;1.00;;;14.90;99.90;;;;;;5048463;28;20747;-82
2022/08/26 12:15:35;;;;;;;4.68;1.27;;;14.80;99.90;;;;;;5069406;28;20238;-82
2022/08/26 12:18:23;;;;;;;3.38;1.20;;;14.90;99.90;;;;;;5064047;28;20201;-83
2022/08/26 12:20:56;;;;;;;2.05;0.98;;;14.90;99.90;;;;;;5051921;28;20200;-83
2022/08/26 12:23:29;;;;;;;1.98;1.10;;;14.80;99.90;;;;;;5051546;28;20228;-83
2022/08/26 12:26:08;;;;;;;4.65;1.42;;;14.80;99.90;;;;;;5050038;28;20203;-81
2022/08/26 12:28:46;;;;;;;2.00;1.33;;;14.90;99.90;;;;;;5051922;28;20671;-82
2022/08/26 12:31:24;;;;;;;2.88;1.10;;;14.80;99.90;;;;;;5037363;28;20570;-82
2022/08/26 12:33:55;;;;;;;3.58;1.10;;;14.70;99.90;;;;;;5043458;28;20219;-82
2022/08/26 12:36:33;;;;;;;3.05;1.05;;;14.80;99.90;;;;;;5057568;28;20198;-82
2022/08/26 12:39:11;;;;;;;2.13;0.95;;;14.70;99.90;;;;;;5052457;28;20671;-83
2022/08/26 12:41:45;;;;;;;2.88;0.93;;;14.70;99.90;;;;;;5052020;28;20201;-81
2022/08/26 12:44:45;;;;;;;2.40;0.85;;;14.80;99.90;;;;;;5051742;28;20229;-85
2022/08/26 12:47:24;;;;;;;2.88;1.30;;;14.80;99.90;;;;;;5058024;28;20204;-83
2022/08/26 12:50:04;;;;;;;1.90;0.80;;;14.80;99.90;;;;;;5071336;28;20241;-81
2022/08/26 12:52:44;;;;;;;2.75;0.90;;;14.80;99.90;;;;;;5063051;28;20551;-82
2022/08/26 12:55:23;;;;;;;1.35;0.70;;;14.70;99.90;;;;;;5054968;28;20659;-82
2022/08/26 12:58:10;;;;;;;3.33;0.88;;;14.70;99.90;;;;;;5050597;28;20226;-82
2022/08/26 13:00:44;;;;;;;2.38;0.73;;;14.70;99.90;;;;;;5049619;28;20199;-81
2022/08/26 13:03:39;;;;;;;1.58;1.13;;;14.70;99.90;;;;;;5050400;28;20257;-83
2022/08/26 13:06:30;;;;;;;3.03;0.90;;;14.70;99.90;;;;;;5050795;28;20203;-83
2022/08/26 13:09:05;;;;;;;2.90;0.90;;;14.70;99.90;;;;;;5055426;28;20201;-82
2022/08/26 13:11:57;;;;;;;2.22;1.23;;;14.70;99.90;;;;;;5054914;28;20745;-81
2022/08/26 13:14:28;;;;;;;3.25;1.55;;;14.70;99.90;;;;;;5052389;28;20200;-81
2022/08/26 13:16:59;;;;;;;3.38;1.20;;;14.60;99.90;;;;;;5050116;28;20199;-82
2022/08/26 13:19:33;;;;;;;2.38;0.95;;;14.60;99.90;;;;;;5051891;28;20201;-81
2022/08/26 13:22:06;;;;;;;2.33;1.10;;;14.60;99.90;;;;;;5050850;28;20211;-81
2022/08/26 13:24:41;;;;;;;1.48;0.90;;;14.60;99.90;;;;;;5051807;28;20754;-82
2022/08/26 13:27:16;;;;;;;2.00;0.93;;;14.60;99.90;;;;;;5053841;28;20223;-82
2022/08/26 13:29:47;;;;;;;3.38;1.20;;;14.60;99.90;;;;;;5048703;28;20193;-82
2022/08/26 13:32:21;;;;;;;2.17;1.15;;;14.60;99.90;;;;;;5050886;28;20201;-83
2022/08/26 13:34:54;;;;;;;1.48;0.90;;;14.60;99.90;;;;;;5047514;28;20192;-83
2022/08/26 13:37:26;;;;;;;1.70;1.15;;;14.60;99.90;;;;;;5050940;28;20200;-81
2022/08/26 13:39:58;;;;;;;2.03;1.02;;;14.60;99.90;;;;;;5050739;28;20204;-82
2022/08/26 13:42:30;;;;;;;1.65;1.20;;;14.60;99.90;;;;;;5053067;28;20314;-80
2022/08/26 13:45:00;;;;;;;2.13;1.05;;;14.70;99.90;;;;;;5050751;28;20200;-81